Terminal Aerodrome Forecast
Issued by NWS Greer, SC

Home | Current Version | Previous Version | Text Only | Print | Product List | Glossary On
Versions: 1 2 3 4 5 6 7 8 9 10 11 12 13 14 15 16
000
FTUS42 KGSP 202324
TAFAVL
TAF
KAVL 202324Z 2100/2124 15006KT P6SM BKN250
     FM210900 17004KT P6SM BKN035
     FM211200 17006KT P6SM OVC025
     FM211700 17007KT P6SM -RADZ OVC020
     FM212200 17006KT P6SM BKN030=

USA.gov is the U.S. government's official web portal to all federal, state and local government web resources and services.